Time;durP1;ratioP1;P1;durP2;ratioP2;P2;SDS_P1;SDS_P2;PMS_P1;PMS_P2;Temp;Humidity;BMP_temperature;BMP_pressure;BME280_temperature;BME280_humidity;BME280_pressure;Samples;Min_cycle;Max_cycle;Signal;HPM_P1;HPM_P2
2023/10/04 00:00:27;;;;;;;1.53;1.43;;;14.70;99.90;;;14.94;nan;101749.94;4903851;29;20639;-66
2023/10/04 00:02:55;;;;;;;0.77;0.77;;;14.60;99.90;;;14.92;nan;101753.63;4903456;29;21193;-66
2023/10/04 00:05:24;;;;;;;1.43;0.90;;;14.60;99.90;;;14.94;nan;101760.47;4906681;29;20646;-65
2023/10/04 00:07:55;;;;;;;2.63;1.57;;;14.60;99.90;;;14.92;nan;101757.09;4908942;29;20662;-66
2023/10/04 00:10:23;;;;;;;0.87;0.87;;;14.60;99.90;;;14.92;nan;101756.25;4906083;29;20713;-63
2023/10/04 00:12:53;;;;;;;0.80;0.80;;;14.60;99.90;;;14.90;nan;101759.00;4909016;29;20685;-66
2023/10/04 00:15:22;;;;;;;1.20;1.00;;;14.60;99.90;;;14.88;nan;101765.31;4909338;29;20713;-65
2023/10/04 00:17:52;;;;;;;2.40;0.93;;;14.60;99.90;;;14.87;nan;101759.22;4913299;29;20666;-65
2023/10/04 00:20:21;;;;;;;1.57;0.90;;;14.60;99.90;;;14.84;nan;101764.72;4913447;29;20641;-64
2023/10/04 00:22:48;;;;;;;1.03;0.93;;;14.50;99.90;;;14.83;nan;101767.44;4909547;29;20642;-64
2023/10/04 00:25:20;;;;;;;0.80;0.80;;;14.50;99.90;;;14.83;nan;101765.66;4898185;29;20639;-67
2023/10/04 00:27:55;;;;;;;0.97;0.93;;;14.50;99.90;;;14.79;nan;101769.44;4903505;29;20666;-66
2023/10/04 00:30:26;;;;;;;1.40;0.70;;;14.40;99.90;;;14.70;nan;101765.69;4907228;29;20645;-65
2023/10/04 00:32:54;;;;;;;1.47;1.20;;;14.40;99.90;;;14.64;nan;101757.41;4897619;29;20697;-65
2023/10/04 00:35:23;;;;;;;1.10;0.93;;;14.30;99.90;;;14.61;nan;101752.34;4922826;29;21055;-64
2023/10/04 00:38:00;;;;;;;1.00;1.00;;;14.30;99.90;;;14.58;nan;101758.69;4899679;29;20659;-66
2023/10/04 00:40:32;;;;;;;0.73;0.73;;;14.20;99.90;;;14.60;nan;101758.56;4905127;29;20692;-66
2023/10/04 00:43:01;;;;;;;1.03;1.00;;;14.20;99.90;;;14.60;nan;101761.19;4912818;29;20633;-67
2023/10/04 00:45:32;;;;;;;0.90;0.77;;;14.30;99.90;;;14.57;nan;101764.03;4908025;29;20649;-67
2023/10/04 00:48:06;;;;;;;0.63;0.63;;;14.20;99.90;;;14.57;nan;101769.28;4899446;29;20666;-66
2023/10/04 00:50:33;;;;;;;1.00;0.87;;;14.20;99.90;;;14.58;nan;101774.44;4925787;29;20642;-66
2023/10/04 00:53:26;;;;;;;0.70;0.70;;;14.20;99.90;;;14.62;nan;101775.06;4918138;29;20759;-67
2023/10/04 00:55:56;;;;;;;0.73;0.73;;;14.30;99.90;;;14.60;nan;101776.94;4920722;29;21215;-66
2023/10/04 00:58:24;;;;;;;0.70;0.70;;;14.20;99.90;;;14.62;nan;101768.03;4926490;29;20983;-64
2023/10/04 01:00:51;;;;;;;1.00;0.87;;;14.30;99.90;;;14.63;nan;101776.72;4905123;29;20644;-66
2023/10/04 01:03:24;;;;;;;1.40;1.30;;;14.30;99.90;;;14.65;nan;101770.41;4901914;29;20648;-66
2023/10/04 01:05:52;;;;;;;1.33;0.97;;;14.30;99.90;;;14.65;nan;101780.09;4902183;29;21023;-66
2023/10/04 01:08:22;;;;;;;0.83;0.83;;;14.30;99.90;;;14.63;nan;101781.97;4926913;29;20669;-65
2023/10/04 01:10:53;;;;;;;0.90;0.90;;;14.30;99.90;;;14.66;nan;101773.88;4902134;29;20639;-65
2023/10/04 01:13:22;;;;;;;1.10;1.00;;;14.30;99.90;;;14.64;nan;101784.50;4900378;29;20680;-66
2023/10/04 01:15:51;;;;;;;1.37;1.00;;;14.30;99.90;;;14.63;nan;101784.59;4897652;29;20631;-66
2023/10/04 01:18:18;;;;;;;1.20;1.10;;;14.30;99.90;;;14.63;nan;101792.47;4900280;29;20654;-66
2023/10/04 01:20:46;;;;;;;1.17;1.10;;;14.30;99.90;;;14.61;nan;101789.97;4902875;29;20639;-64
2023/10/04 01:23:14;;;;;;;0.80;0.80;;;14.30;99.90;;;14.54;nan;101780.03;4927385;29;20650;-66
2023/10/04 01:25:44;;;;;;;1.30;0.90;;;14.20;99.90;;;14.51;nan;101783.69;4904149;29;20639;-65
2023/10/04 01:28:14;;;;;;;1.47;0.90;;;14.20;99.90;;;14.49;nan;101782.97;4927410;29;20674;-66
2023/10/04 01:30:43;;;;;;;0.97;0.87;;;14.20;99.90;;;14.45;nan;101785.91;4907901;29;21009;-66
2023/10/04 01:33:21;;;;;;;1.13;1.00;;;14.10;99.90;;;14.38;nan;101782.03;4915584;29;20748;-66
2023/10/04 01:35:55;;;;;;;1.10;1.00;;;14.10;99.90;;;14.35;nan;101784.88;4926428;29;21200;-66
2023/10/04 01:38:32;;;;;;;0.90;0.73;;;14.00;99.90;;;14.36;nan;101784.75;4905358;29;20640;-66
2023/10/04 01:40:59;;;;;;;1.30;0.97;;;14.00;99.90;;;14.30;nan;101784.34;4907073;29;20635;-66
2023/10/04 01:43:27;;;;;;;0.80;0.80;;;14.00;99.90;;;14.25;nan;101787.25;4909359;29;20642;-64
2023/10/04 01:45:58;;;;;;;1.77;1.07;;;14.00;99.90;;;14.21;nan;101784.94;4913005;29;21006;-65
2023/10/04 01:48:28;;;;;;;1.33;1.00;;;13.90;99.90;;;14.17;nan;101791.34;4915200;29;20642;-66
2023/10/04 01:50:56;;;;;;;1.37;1.27;;;13.90;99.90;;;14.19;nan;101794.69;4920245;29;21256;-66
2023/10/04 01:53:24;;;;;;;1.27;1.17;;;13.90;99.90;;;14.19;nan;101792.09;4905217;29;20678;-67
2023/10/04 01:55:54;;;;;;;1.10;1.00;;;13.90;99.90;;;14.20;nan;101799.88;4902301;29;20672;-66
2023/10/04 01:58:24;;;;;;;2.80;1.13;;;13.90;99.90;;;14.23;nan;101797.03;4925726;29;20721;-66
2023/10/04 02:00:53;;;;;;;0.80;0.80;;;13.90;99.90;;;14.23;nan;101797.03;4910295;29;20631;-67
2023/10/04 02:03:20;;;;;;;1.23;1.10;;;13.90;99.90;;;14.24;nan;101796.09;4905503;29;20646;-66
2023/10/04 02:05:50;;;;;;;2.30;1.03;;;13.90;99.90;;;14.27;nan;101805.53;4915569;29;20633;-66
2023/10/04 02:08:17;;;;;;;1.00;1.00;;;13.90;99.90;;;14.27;nan;101800.28;4905269;29;20696;-66
2023/10/04 02:10:44;;;;;;;0.83;0.80;;;13.90;99.90;;;14.28;nan;101812.47;4897401;29;20643;-67
2023/10/04 02:13:15;;;;;;;1.00;0.90;;;14.00;99.90;;;14.29;nan;101806.31;4903432;29;20725;-66
2023/10/04 02:15:47;;;;;;;0.97;0.97;;;14.00;99.90;;;14.29;nan;101808.94;4899032;29;21202;-66
2023/10/04 02:18:15;;;;;;;1.40;1.27;;;14.00;99.90;;;14.26;nan;101804.69;4929441;29;20685;-66
2023/10/04 02:20:48;;;;;;;1.20;1.10;;;14.00;99.90;;;14.27;nan;101808.97;4926258;29;21217;-67
2023/10/04 02:23:16;;;;;;;1.20;0.80;;;14.00;99.90;;;14.26;nan;101809.09;4896491;29;20643;-66
2023/10/04 02:25:44;;;;;;;1.10;1.10;;;14.00;99.90;;;14.23;nan;101798.78;4902077;29;20676;-67
2023/10/04 02:28:11;;;;;;;1.63;1.33;;;13.90;99.90;;;14.23;nan;101793.53;4910286;29;20724;-67
2023/10/04 02:30:39;;;;;;;1.00;1.00;;;13.90;99.90;;;14.20;nan;101789.38;4913262;29;20638;-66
2023/10/04 02:33:13;;;;;;;1.67;1.07;;;13.90;99.90;;;14.17;nan;101789.56;4908668;29;20684;-68
2023/10/04 02:35:45;;;;;;;0.80;0.80;;;13.90;99.90;;;14.15;nan;101788.00;4910399;29;20642;-66
2023/10/04 02:38:19;;;;;;;0.90;0.90;;;13.90;99.90;;;14.13;nan;101785.47;4919264;29;20666;-66
2023/10/04 02:40:48;;;;;;;1.07;0.97;;;13.80;99.90;;;14.12;nan;101793.47;4903306;29;20646;-66
2023/10/04 02:43:15;;;;;;;2.00;1.17;;;13.80;99.90;;;14.07;nan;101801.66;4900265;29;20637;-66
2023/10/04 02:45:43;;;;;;;1.03;0.80;;;13.80;99.90;;;14.01;nan;101800.25;4899190;29;20642;-66
2023/10/04 02:48:10;;;;;;;0.87;0.87;;;13.70;99.90;;;13.99;nan;101796.91;4921582;29;20677;-66
2023/10/04 02:50:40;;;;;;;1.00;1.00;;;13.70;99.90;;;13.96;nan;101796.28;4908910;29;21012;-66
2023/10/04 02:53:12;;;;;;;1.10;1.10;;;13.70;99.90;;;13.92;nan;101800.91;4904885;29;20686;-66
2023/10/04 02:55:42;;;;;;;1.90;1.20;;;13.60;99.90;;;13.90;nan;101789.69;4909846;29;21238;-66
2023/10/04 02:58:12;;;;;;;1.10;1.00;;;13.60;99.90;;;13.88;nan;101802.03;4904768;29;20670;-66
2023/10/04 03:00:46;;;;;;;2.20;1.37;;;13.60;99.90;;;13.88;nan;101796.78;4911104;29;20645;-66
2023/10/04 03:03:13;;;;;;;7.17;1.30;;;13.60;99.90;;;13.86;nan;101795.22;4909342;29;21215;-64
2023/10/04 03:05:41;;;;;;;1.77;1.30;;;13.60;99.90;;;13.88;nan;101802.03;4907723;29;21025;-65
2023/10/04 03:08:08;;;;;;;1.03;0.97;;;13.60;99.90;;;13.92;nan;101806.16;4912946;29;21097;-66
2023/10/04 03:10:37;;;;;;;1.40;1.03;;;13.60;99.90;;;13.93;nan;101802.56;4912547;29;21023;-66
2023/10/04 03:15:52;;;;;;;2.40;1.03;;;13.70;99.90;;;13.97;nan;101798.78;4909352;29;20638;-65
2023/10/04 03:18:20;;;;;;;1.13;1.07;;;13.70;99.90;;;13.98;nan;101803.13;4908214;29;21239;-67
2023/10/04 03:21:16;;;;;;;1.30;1.20;;;13.70;99.90;;;13.99;nan;101802.16;4904837;29;20642;-67
2023/10/04 03:23:40;;;;;;;1.00;1.00;;;13.70;99.90;;;14.00;nan;101803.84;4906708;29;20701;-65
2023/10/04 03:26:07;;;;;;;1.00;1.00;;;13.70;99.90;;;14.05;nan;101810.56;4908167;29;20646;-66
2023/10/04 03:28:36;;;;;;;0.90;0.90;;;13.70;99.90;;;14.05;nan;101811.41;4908961;29;20646;-66
2023/10/04 03:31:14;;;;;;;1.00;1.00;;;13.70;99.90;;;14.05;nan;101805.31;4912697;29;20641;-66
2023/10/04 03:33:45;;;;;;;0.90;0.90;;;13.80;99.90;;;14.05;nan;101810.56;4909344;29;20673;-66
2023/10/04 03:36:18;;;;;;;0.90;0.90;;;13.70;99.90;;;14.06;nan;101796.47;4912028;29;21204;-65
2023/10/04 03:38:45;;;;;;;1.20;1.20;;;13.80;99.90;;;14.02;nan;101804.59;4924764;29;21815;-66
2023/10/04 03:41:12;;;;;;;1.13;1.03;;;13.70;99.90;;;13.99;nan;101796.91;4925475;29;20650;-67
2023/10/04 03:43:40;;;;;;;1.47;1.20;;;13.70;99.90;;;14.00;nan;101795.97;4910551;29;20646;-65
2023/10/04 03:46:17;;;;;;;1.00;0.90;;;13.70;99.90;;;13.99;nan;101796.91;4911807;29;20670;-67
2023/10/04 03:48:49;;;;;;;0.77;0.77;;;13.70;99.90;;;13.96;nan;101796.28;4911831;29;21969;-66
2023/10/04 03:51:23;;;;;;;0.80;0.80;;;13.70;99.90;;;13.91;nan;101790.50;4906880;29;20653;-67
2023/10/04 03:53:53;;;;;;;1.00;1.00;;;13.60;99.90;;;13.90;nan;101794.94;4912199;29;20693;-66
2023/10/04 03:56:21;;;;;;;1.23;1.13;;;13.60;99.90;;;13.91;nan;101793.13;4912278;29;20736;-64
2023/10/04 03:58:51;;;;;;;4.73;1.10;;;13.60;99.90;;;13.91;nan;101787.88;4908043;29;21227;-66
2023/10/04 04:01:19;;;;;;;0.87;0.87;;;13.60;99.90;;;13.91;nan;101787.88;4908588;29;21231;-67
2023/10/04 04:03:48;;;;;;;1.50;1.40;;;13.60;99.90;;;13.92;nan;101787.78;4911669;29;20649;-65
2023/10/04 04:06:15;;;;;;;1.23;1.13;;;13.60;99.90;;;13.94;nan;101798.16;4910337;29;21014;-66
2023/10/04 04:08:42;;;;;;;1.53;1.13;;;13.70;99.90;;;13.91;nan;101793.13;4913654;29;20649;-66
2023/10/04 04:11:09;;;;;;;0.90;0.90;;;13.70;99.90;;;13.90;nan;101791.44;4913301;29;20638;-66
2023/10/04 04:13:36;;;;;;;1.50;1.40;;;13.60;99.90;;;13.87;nan;101789.03;4906674;29;20674;-65
2023/10/04 04:16:09;;;;;;;1.83;1.17;;;13.60;99.90;;;13.86;nan;101795.22;4908304;29;20645;-67
2023/10/04 04:18:37;;;;;;;1.20;1.20;;;13.60;99.90;;;13.84;nan;101802.38;4912225;29;20633;-67
2023/10/04 04:21:05;;;;;;;1.40;1.30;;;13.60;99.90;;;13.77;nan;101796.69;4910810;29;20711;-66
2023/10/04 04:23:32;;;;;;;1.00;1.00;;;13.50;99.90;;;13.73;nan;101805.72;4913062;29;20638;-67
2023/10/04 04:26:00;;;;;;;1.60;0.97;;;13.50;99.90;;;13.70;nan;101799.81;4912475;29;21212;-66
2023/10/04 04:28:29;;;;;;;1.67;0.97;;;13.40;99.90;;;13.64;nan;101803.69;4913900;29;20645;-66
2023/10/04 04:30:58;;;;;;;1.20;1.10;;;13.40;99.90;;;13.62;nan;101809.97;4909737;29;20676;-65
2023/10/04 04:33:28;;;;;;;4.13;1.27;;;13.30;99.90;;;13.59;nan;101810.16;4911777;29;21247;-66
2023/10/04 04:36:04;;;;;;;1.13;1.07;;;13.30;99.90;;;13.55;nan;101809.53;4911952;29;20693;-66
2023/10/04 04:38:37;;;;;;;6.10;1.17;;;13.30;99.90;;;13.50;nan;101803.72;4913580;29;20689;-67
2023/10/04 04:41:12;;;;;;;2.20;1.50;;;13.20;99.90;;;13.45;nan;101807.59;4910935;29;21344;-65
2023/10/04 04:43:39;;;;;;;1.43;1.27;;;13.20;99.90;;;13.41;nan;101804.34;4911539;29;20644;-65
2023/10/04 04:46:13;;;;;;;2.17;1.17;;;13.10;99.90;;;13.39;nan;101800.16;4911641;29;20646;-66
2023/10/04 04:48:41;;;;;;;6.30;1.30;;;13.10;99.90;;;13.37;nan;101807.28;4910284;29;20652;-66
2023/10/04 04:51:14;;;;;;;2.23;1.70;;;13.10;99.90;;;13.37;nan;101812.53;4924262;29;20646;-67
2023/10/04 04:53:50;;;;;;;1.37;1.27;;;13.10;99.90;;;13.29;nan;101807.75;4910854;29;20677;-66
2023/10/04 04:56:18;;;;;;;1.40;1.30;;;13.00;99.90;;;13.25;nan;101801.03;4929697;29;20642;-66
2023/10/04 04:58:56;;;;;;;1.73;1.40;;;13.00;99.90;;;13.18;nan;101800.59;4915683;29;20638;-66
2023/10/04 05:01:23;;;;;;;1.87;1.77;;;12.90;99.90;;;13.18;nan;101795.34;4911882;29;21243;-67
2023/10/04 05:03:51;;;;;;;6.20;1.67;;;12.90;99.90;;;13.16;nan;101793.78;4929226;29;20649;-66
2023/10/04 05:06:22;;;;;;;2.47;1.67;;;12.90;99.90;;;13.15;nan;101803.41;4914104;29;20658;-67
2023/10/04 05:08:51;;;;;;;1.87;1.73;;;12.90;99.90;;;13.11;nan;101795.84;4913211;29;20652;-67
2023/10/04 05:11:18;;;;;;;2.40;1.90;;;12.80;99.90;;;13.08;nan;101799.50;4917025;29;20638;-67
2023/10/04 05:13:46;;;;;;;4.87;1.90;;;12.80;99.90;;;13.05;nan;101801.47;4913189;29;20685;-67
2023/10/04 05:16:13;;;;;;;2.93;1.73;;;12.80;99.90;;;13.01;nan;101797.34;4915693;29;21211;-67
2023/10/04 05:18:40;;;;;;;1.60;1.50;;;12.70;99.90;;;12.98;nan;101801.00;4913362;29;20642;-67
2023/10/04 05:21:10;;;;;;;1.90;1.50;;;12.70;99.90;;;12.90;nan;101787.56;4914938;29;21224;-67
2023/10/04 05:23:38;;;;;;;1.87;1.77;;;12.70;99.90;;;12.87;nan;101792.13;4912611;29;20661;-66
2023/10/04 05:26:08;;;;;;;1.60;1.33;;;12.60;99.90;;;12.82;nan;101796.84;4930069;29;20642;-66
2023/10/04 05:28:35;;;;;;;2.03;1.40;;;12.60;99.90;;;12.73;nan;101787.78;4911433;29;21587;-66
2023/10/04 05:31:03;;;;;;;1.53;1.37;;;12.50;99.90;;;12.73;nan;101794.78;4916341;29;20644;-67
2023/10/04 05:33:30;;;;;;;1.20;1.13;;;12.50;99.90;;;12.65;nan;101797.03;4913343;29;20689;-66
2023/10/04 05:36:00;;;;;;;1.43;1.30;;;12.40;99.90;;;12.63;nan;101794.50;4929430;29;20637;-65
2023/10/04 05:38:28;;;;;;;2.10;1.40;;;12.40;99.90;;;12.68;nan;101807.31;4915011;29;20626;-67
2023/10/04 05:40:55;;;;;;;1.43;1.33;;;12.40;99.90;;;12.69;nan;101804.59;4908839;29;20639;-66
2023/10/04 05:43:22;;;;;;;1.20;0.93;;;12.50;99.90;;;12.70;nan;101811.53;4910558;29;20640;-66
2023/10/04 05:45:49;;;;;;;2.83;1.50;;;12.50;99.90;;;12.67;nan;101816.94;4929241;29;20621;-67
2023/10/04 05:48:19;;;;;;;1.63;1.20;;;12.40;99.90;;;12.66;nan;101814.41;4922798;29;21812;-66
2023/10/04 05:50:50;;;;;;;1.17;1.10;;;12.40;99.90;;;12.64;nan;101811.06;4908944;29;20638;-67
2023/10/04 05:53:21;;;;;;;1.37;1.17;;;12.40;99.90;;;12.69;nan;101820.28;4909076;29;20634;-66
2023/10/04 05:55:49;;;;;;;2.07;1.40;;;12.40;99.90;;;12.70;nan;101826.38;4907584;29;20676;-66
2023/10/04 05:58:17;;;;;;;1.07;1.00;;;12.50;99.90;;;12.74;nan;101839.19;4910411;29;20673;-66
2023/10/04 06:00:51;;;;;;;1.20;1.13;;;12.50;99.90;;;12.81;nan;101844.91;4914266;29;20633;-66
2023/10/04 06:03:19;;;;;;;1.80;1.30;;;12.50;99.90;;;12.90;nan;101855.66;4907887;29;20645;-65
2023/10/04 06:05:46;;;;;;;1.80;1.70;;;12.60;99.90;;;13.13;nan;101851.63;4915595;29;20633;-66
2023/10/04 06:08:21;;;;;;;0.90;0.90;;;12.80;99.90;;;13.47;nan;101861.63;4914480;29;20676;-66
2023/10/04 06:10:53;;;;;;;1.33;1.20;;;13.10;99.90;;;13.63;nan;101858.88;4916045;29;20637;-67
2023/10/04 06:13:22;;;;;;;0.90;0.90;;;13.30;99.90;;;13.78;nan;101861.31;4910872;29;20764;-67
2023/10/04 06:15:53;;;;;;;1.07;1.00;;;13.50;99.90;;;14.15;nan;101869.34;4912362;29;21305;-66
2023/10/04 06:18:26;;;;;;;1.33;1.23;;;13.80;99.90;;;14.32;nan;101867.31;4912396;29;20674;-67
2023/10/04 06:20:53;;;;;;;1.80;1.10;;;14.00;99.90;;;14.56;nan;101862.16;4913622;29;21016;-67
2023/10/04 06:23:21;;;;;;;1.80;1.60;;;14.10;99.90;;;15.00;nan;101869.56;4910759;29;20641;-66
2023/10/04 06:25:50;;;;;;;1.73;0.90;;;14.60;99.90;;;15.14;nan;101877.31;4914946;29;20642;-67
2023/10/04 06:28:17;;;;;;;2.23;1.20;;;14.70;99.90;;;15.07;nan;101891.84;4911146;29;20677;-67
2023/10/04 06:30:52;;;;;;;3.50;1.30;;;14.70;99.90;;;14.91;nan;101891.22;4906012;29;20642;-67
2023/10/04 06:33:19;;;;;;;1.13;1.10;;;14.60;99.90;;;14.68;nan;101890.22;4905255;29;20643;-65
2023/10/04 06:35:47;;;;;;;2.57;0.97;;;14.40;99.90;;;14.61;nan;101892.41;4905117;29;20681;-65
2023/10/04 06:38:14;;;;;;;1.10;1.00;;;14.30;99.90;;;15.05;nan;101894.59;4926007;29;20665;-66
2023/10/04 06:40:42;;;;;;;1.40;0.77;;;14.60;99.90;;;15.84;nan;101896.75;4925224;29;20649;-66
2023/10/04 06:43:10;;;;;;;1.00;1.00;;;15.30;99.90;;;16.60;nan;101897.09;4914692;29;20641;-65
2023/10/04 06:45:39;;;;;;;1.43;1.30;;;16.10;99.90;;;17.30;nan;101901.13;4915005;29;20630;-67
2023/10/04 06:48:07;;;;;;;1.10;1.00;;;16.80;99.90;;;18.05;nan;101904.63;4913082;29;20689;-67
2023/10/04 06:50:38;;;;;;;1.37;0.97;;;17.50;99.90;;;18.84;nan;101901.38;4918100;29;20650;-67
2023/10/04 06:53:08;;;;;;;1.93;1.47;;;18.30;99.90;;;19.52;nan;101900.63;4913535;29;20645;-67
2023/10/04 06:55:37;;;;;;;2.50;1.83;;;19.10;99.90;;;20.13;nan;101907.31;4909360;29;21239;-67
2023/10/04 06:58:04;;;;;;;1.53;1.43;;;19.70;99.90;;;20.59;nan;101906.53;4924372;29;20661;-67
2023/10/04 07:00:35;;;;;;;1.00;1.00;;;20.20;99.90;;;21.03;nan;101906.84;4911012;29;20656;-67
2023/10/04 07:03:04;;;;;;;3.20;1.50;;;20.70;99.90;;;21.42;nan;101910.97;4909275;29;20645;-66
2023/10/04 07:05:40;;;;;;;1.50;1.40;;;21.20;99.90;;;21.82;nan;101910.53;4913924;29;20638;-66
2023/10/04 07:08:12;;;;;;;1.53;1.43;;;21.70;99.90;;;22.24;nan;101912.41;4910186;29;20657;-66
2023/10/04 07:10:40;;;;;;;1.43;1.33;;;22.10;99.90;;;22.70;nan;101907.75;4913374;29;21214;-66
2023/10/04 07:13:07;;;;;;;2.37;1.77;;;22.60;99.90;;;23.09;nan;101912.44;4911705;29;21608;-67
2023/10/04 07:15:41;;;;;;;5.47;2.30;;;23.10;99.30;;;23.74;nan;101921.47;4912807;29;20767;-67
2023/10/04 07:18:11;;;;;;;1.93;1.83;;;23.70;98.50;;;24.44;nan;101930.66;4910363;29;20652;-67
2023/10/04 07:20:39;;;;;;;1.80;1.20;;;24.50;96.70;;;25.03;nan;101928.50;4913982;29;20638;-67
2023/10/04 07:23:09;;;;;;;3.53;2.00;;;25.10;94.90;;;25.41;nan;101930.31;4909892;29;20994;-66
2023/10/04 07:25:41;;;;;;;2.43;1.97;;;25.50;93.30;;;25.67;nan;101941.56;4906700;29;20670;-67
2023/10/04 07:28:11;;;;;;;2.30;1.53;;;25.90;92.40;;;26.10;nan;101943.63;4911992;29;20670;-66
2023/10/04 07:30:40;;;;;;;1.33;1.23;;;26.30;91.50;;;26.54;nan;101953.56;4910083;29;20716;-65
2023/10/04 07:33:08;;;;;;;1.27;1.27;;;26.80;90.30;;;27.27;nan;101946.41;4907133;29;20653;-66
2023/10/04 07:35:36;;;;;;;4.80;1.60;;;27.50;88.00;;;27.64;nan;101938.19;4908953;29;20681;-65
2023/10/04 07:38:06;;;;;;;2.10;1.50;;;28.00;84.30;;;28.04;nan;101941.31;4913251;29;20668;-65
2023/10/04 07:40:35;;;;;;;3.50;1.57;;;28.40;81.80;;;28.27;nan;101936.53;4914347;29;20630;-66
2023/10/04 07:43:02;;;;;;;2.83;1.73;;;28.60;79.70;;;28.76;nan;101941.88;4912018;29;20642;-66
2023/10/04 07:45:30;;;;;;;1.63;1.50;;;29.00;78.20;;;29.47;nan;101956.72;4910975;29;20649;-66
2023/10/04 07:48:03;;;;;;;1.60;1.47;;;29.60;76.10;;;29.88;nan;101960.97;4910369;29;20684;-65
2023/10/04 07:50:31;;;;;;;2.00;1.90;;;30.00;74.40;;;30.24;nan;101957.88;4909764;29;20709;-66
2023/10/04 07:53:04;;;;;;;1.80;1.70;;;30.40;72.50;;;30.11;nan;101965.13;4904991;29;20638;-66
2023/10/04 07:55:33;;;;;;;3.53;2.03;;;30.30;71.50;;;30.30;nan;101964.31;4909986;29;21999;-67
2023/10/04 07:58:04;;;;;;;1.80;1.53;;;30.40;71.30;;;30.51;nan;101959.56;4913252;29;20658;-67
2023/10/04 08:00:36;;;;;;;1.50;1.40;;;30.60;70.30;;;30.95;nan;101950.78;4913211;29;20665;-66
2023/10/04 08:03:06;;;;;;;2.43;1.63;;;31.00;69.40;;;31.26;nan;101952.75;4913616;29;20634;-66
2023/10/04 08:05:33;;;;;;;1.20;1.20;;;31.50;67.70;;;31.61;nan;101956.72;4911648;29;20645;-66
2023/10/04 08:08:03;;;;;;;1.30;1.20;;;31.80;66.50;;;32.18;nan;101960.31;4913860;29;20665;-66
2023/10/04 08:10:36;;;;;;;1.50;1.47;;;32.40;65.10;;;32.20;nan;101958.22;4911740;29;20729;-66
2023/10/04 08:13:05;;;;;;;1.17;1.17;;;32.60;64.40;;;32.28;nan;101956.06;4909465;29;20692;-66
2023/10/04 08:15:36;;;;;;;2.80;1.60;;;32.60;63.60;;;32.60;nan;101956.84;4909516;29;20677;-67
2023/10/04 08:18:04;;;;;;;1.90;1.40;;;32.80;62.90;;;32.52;nan;101960.63;4912268;29;21334;-66
2023/10/04 08:20:32;;;;;;;1.70;1.47;;;32.60;62.60;;;32.32;nan;101951.03;4910103;29;20641;-67
2023/10/04 08:23:04;;;;;;;1.53;1.43;;;32.40;62.50;;;32.46;nan;101953.38;4911619;29;20673;-67
2023/10/04 08:25:32;;;;;;;3.80;1.87;;;32.50;62.30;;;32.84;nan;101947.81;4909008;29;20653;-66
2023/10/04 08:28:00;;;;;;;1.50;1.40;;;33.00;61.60;;;32.73;nan;101945.88;4913406;29;20650;-67
2023/10/04 08:30:28;;;;;;;1.60;1.50;;;33.20;60.70;;;32.98;nan;101943.94;4916661;29;20627;-67
2023/10/04 08:32:55;;;;;;;3.30;1.37;;;33.30;60.40;;;33.80;nan;101950.59;4913321;29;20645;-66
2023/10/04 08:35:24;;;;;;;1.50;1.40;;;34.00;59.10;;;34.61;nan;101954.22;4916409;29;20685;-65
2023/10/04 08:37:55;;;;;;;1.10;1.10;;;34.70;58.10;;;35.36;nan;101951.47;4914478;29;20662;-66
2023/10/04 08:40:25;;;;;;;3.93;1.70;;;35.50;57.10;;;35.84;nan;101947.22;4916122;29;21231;-65
2023/10/04 08:42:51;;;;;;;1.27;1.17;;;36.00;55.90;;;35.98;nan;101945.06;4914797;29;20634;-65
2023/10/04 08:45:20;;;;;;;1.47;1.33;;;;;;;36.33;nan;101956.47;4912000;29;21234;-68
2023/10/04 08:47:57;;;;;;;1.47;1.30;;;36.50;53.80;;;36.62;nan;101956.38;4914245;29;20677;-66
2023/10/04 08:50:40;;;;;;;1.30;1.20;;;36.70;53.70;;;36.97;nan;101948.72;4910821;29;20702;-67
2023/10/04 08:53:41;;;;;;;5.37;1.30;;;37.10;53.00;;;36.78;nan;101942.72;4927050;29;21195;-65
2023/10/04 08:56:16;;;;;;;1.10;1.10;;;37.30;51.90;;;35.61;nan;101938.38;4906983;29;20676;-67
2023/10/04 08:58:45;;;;;;;3.07;1.20;;;36.30;52.30;;;35.91;nan;101935.41;4910315;29;21188;-68
2023/10/04 09:01:19;;;;;;;0.97;0.97;;;36.20;52.50;;;36.07;nan;101934.59;4908368;29;20642;-66
2023/10/04 09:03:47;;;;;;;1.23;1.00;;;36.40;52.10;;;36.53;nan;101931.50;4910660;29;20711;-68
2023/10/04 09:06:14;;;;;;;1.20;1.03;;;36.70;52.30;;;36.96;nan;101933.47;4924631;29;20662;-67
2023/10/04 09:08:42;;;;;;;1.30;1.20;;;37.10;51.70;;;36.58;nan;101931.59;4909011;29;20709;-67
2023/10/04 09:11:11;;;;;;;1.27;1.20;;;37.00;50.90;;;35.43;nan;101925.84;4910393;29;21696;-68
2023/10/04 09:13:49;;;;;;;2.00;1.37;;;36.00;51.50;;;35.97;nan;101924.38;4904580;29;21196;-68
2023/10/04 09:16:22;;;;;;;1.23;1.23;;;36.10;51.80;;;36.16;nan;101930.41;4906218;29;20701;-68
2023/10/04 09:19:13;;;;;;;1.50;1.40;;;36.50;51.00;;;36.48;nan;101940.41;4910997;29;20770;-68
2023/10/04 09:21:41;;;;;;;1.33;1.10;;;36.60;51.10;;;36.25;nan;101927.00;4909994;29;21232;-65
2023/10/04 09:24:11;;;;;;;6.53;5.80;;;36.50;51.00;;;35.67;nan;101927.38;4921250;29;20730;-66
2023/10/04 09:26:49;;;;;;;3.27;2.97;;;35.90;51.10;;;35.70;nan;101932.34;4906237;29;20670;-65
2023/10/04 09:29:32;;;;;;;7.00;1.77;;;35.80;51.30;;;35.51;nan;101911.91;4914796;29;20648;-66
2023/10/04 09:32:00;;;;;;;2.97;1.45;;;35.50;51.40;;;35.10;nan;101921.13;4915041;29;20660;-68
2023/10/04 09:34:28;;;;;;;1.10;1.10;;;34.80;51.70;;;34.12;nan;101922.97;4902098;29;20213;-67
2023/10/04 09:36:57;;;;;;;1.43;1.33;;;33.80;53.80;;;32.72;nan;101918.03;4909512;29;21086;-68
2023/10/04 09:39:28;;;;;;;2.30;2.05;;;32.40;54.50;;;31.37;nan;101908.91;4912371;29;20573;-68
2023/10/04 09:41:58;;;;;;;4.03;1.17;;;31.20;56.00;;;30.06;nan;101911.91;4906619;29;20206;-68
2023/10/04 09:44:26;;;;;;;1.97;1.27;;;29.80;57.30;;;28.80;nan;101906.34;4909965;29;20646;-68
2023/10/04 09:47:02;;;;;;;1.70;1.33;;;28.60;59.20;;;27.61;nan;101909.09;4910339;29;20676;-68
2023/10/04 09:49:35;;;;;;;2.13;1.13;;;27.50;60.80;;;26.71;nan;101901.53;4911005;29;20638;-67
2023/10/04 09:52:08;;;;;;;0.87;0.87;;;26.50;62.20;;;25.75;nan;101905.91;4908509;29;20713;-66
2023/10/04 09:54:35;;;;;;;2.40;1.20;;;25.50;64.70;;;25.02;nan;101903.63;4912861;29;20225;-67
2023/10/04 09:57:07;;;;;;;1.63;1.40;;;24.80;66.20;;;24.54;nan;101909.94;4914221;29;20669;-67
2023/10/04 09:59:38;;;;;;;1.33;1.23;;;24.20;67.60;;;24.07;nan;101900.16;4913049;29;20644;-67
2023/10/04 10:02:11;;;;;;;1.60;1.50;;;23.80;69.00;;;23.72;nan;101899.44;4911246;29;20641;-66
2023/10/04 10:04:48;;;;;;;6.07;1.47;;;23.40;70.00;;;23.44;nan;101895.44;4926898;29;21053;-67
2023/10/04 10:07:21;;;;;;;1.93;1.60;;;23.00;71.10;;;23.17;nan;101896.47;4914291;29;20676;-67
2023/10/04 10:10:13;;;;;;;5.50;1.80;;;22.80;71.60;;;23.06;nan;101902.09;4912510;29;20645;-65
2023/10/04 10:12:43;;;;;;;1.50;1.40;;;22.60;72.90;;;23.02;nan;101898.06;4907383;29;21286;-67
2023/10/04 10:15:13;;;;;;;2.67;1.50;;;22.50;73.80;;;23.20;nan;101902.47;4905506;29;21215;-66
2023/10/04 10:17:43;;;;;;;2.00;1.50;;;22.70;73.90;;;23.57;nan;101892.28;4909809;29;20670;-66
2023/10/04 10:20:11;;;;;;;1.57;1.43;;;23.20;71.30;;;24.41;nan;101895.44;4922553;29;20629;-67
2023/10/04 10:22:58;;;;;;;2.10;2.00;;;24.20;69.00;;;25.51;nan;101898.91;4907515;29;20646;-65
2023/10/04 10:25:32;;;;;;;1.33;1.23;;;25.30;67.50;;;26.26;nan;101902.50;4910635;29;20644;-66
2023/10/04 10:28:03;;;;;;;1.07;0.97;;;25.90;66.30;;;26.50;nan;101896.06;4902085;29;20650;-66
2023/10/04 10:30:34;;;;;;;1.67;1.57;;;26.00;65.90;;;26.10;nan;101903.50;4906555;29;20646;-65
2023/10/04 10:33:04;;;;;;;2.00;1.50;;;25.70;66.40;;;25.31;nan;101898.50;4911998;29;20677;-65
2023/10/04 10:36:10;;;;;;;4.10;1.87;;;25.00;67.10;;;24.44;nan;101887.97;4909133;29;21047;-65
2023/10/04 10:38:40;;;;;;;3.07;1.67;;;24.10;67.70;;;23.81;nan;101884.28;4902119;29;20637;-65
2023/10/04 10:41:27;;;;;;;2.90;1.80;;;23.50;68.70;;;23.33;nan;101877.09;4904750;29;20670;-64